Time;durP1;ratioP1;P1;durP2;ratioP2;P2;SDS_P1;SDS_P2;PMS_P1;PMS_P2;Temp;Humidity;BMP_temperature;BMP_pressure;BME280_temperature;BME280_humidity;BME280_pressure;Samples;Min_cycle;Max_cycle;Signal;HPM_P1;HPM_P2
2022/12/02 00:01:44;;;;;;;58.78;21.55;;;4.40;99.90;;;;;;5019425;28;20125;-67
2022/12/02 00:04:19;;;;;;;58.92;21.50;;;4.40;99.90;;;;;;5049691;28;20436;-67
2022/12/02 00:06:45;;;;;;;55.85;21.38;;;4.40;99.90;;;;;;5054140;28;20041;-67
2022/12/02 00:09:33;;;;;;;58.67;22.42;;;4.40;99.90;;;;;;5026426;28;20051;-68
2022/12/02 00:12:00;;;;;;;55.65;21.75;;;4.40;99.90;;;;;;5032714;28;20045;-68
2022/12/02 00:14:33;;;;;;;63.92;23.08;;;4.40;99.90;;;;;;5036044;28;20048;-68
2022/12/02 00:16:58;;;;;;;57.40;21.65;;;4.30;99.90;;;;;;5036410;28;20444;-67
2022/12/02 00:19:24;;;;;;;63.53;22.25;;;4.30;99.90;;;;;;5026418;28;20095;-68
2022/12/02 00:21:51;;;;;;;62.80;22.48;;;4.30;99.90;;;;;;5028389;28;20045;-68
2022/12/02 00:24:18;;;;;;;59.72;21.80;;;4.30;99.90;;;;;;5035917;28;20098;-67
2022/12/02 00:26:44;;;;;;;63.20;22.48;;;4.30;99.90;;;;;;5022372;28;20045;-68
2022/12/02 00:29:10;;;;;;;63.25;23.08;;;4.30;99.90;;;;;;5031821;28;20167;-68
2022/12/02 00:31:35;;;;;;;59.85;22.27;;;4.30;99.90;;;;;;5040820;28;20116;-68
2022/12/02 00:34:01;;;;;;;64.10;22.75;;;4.30;99.90;;;;;;5054131;28;20047;-68
2022/12/02 00:36:28;;;;;;;56.75;20.58;;;4.30;99.90;;;;;;5044695;28;20126;-68
2022/12/02 00:38:54;;;;;;;69.00;22.83;;;4.30;99.90;;;;;;5016184;28;20049;-68
2022/12/02 00:41:20;;;;;;;62.92;21.80;;;4.30;99.90;;;;;;5018769;28;20049;-68
2022/12/02 00:46:36;;;;;;;59.40;21.88;;;4.30;99.90;;;;;;5040134;28;20048;-67
2022/12/02 00:49:11;;;;;;;53.75;19.60;;;4.20;99.90;;;;;;5037116;28;20048;-68
2022/12/02 00:51:38;;;;;;;52.30;20.33;;;4.20;99.90;;;;;;5046120;28;20519;-68
2022/12/02 00:54:05;;;;;;;52.35;19.35;;;4.10;99.90;;;;;;5027081;28;20056;-68
2022/12/02 00:56:31;;;;;;;52.42;20.08;;;4.10;99.90;;;;;;5035604;28;20491;-69
2022/12/02 00:58:57;;;;;;;51.08;20.50;;;4.10;99.90;;;;;;5049833;28;20044;-67
2022/12/02 01:01:22;;;;;;;53.42;20.42;;;4.10;99.90;;;;;;5027902;28;20122;-67
2022/12/02 01:03:48;;;;;;;52.28;19.67;;;4.00;99.90;;;;;;5035189;28;20075;-68
2022/12/02 01:06:14;;;;;;;46.10;18.45;;;4.00;99.90;;;;;;5052929;28;20044;-67
2022/12/02 01:08:40;;;;;;;51.92;19.05;;;4.00;99.90;;;;;;5043571;28;20494;-67
2022/12/02 01:11:06;;;;;;;44.25;17.35;;;3.90;99.90;;;;;;5032981;28;20091;-68
2022/12/02 01:13:32;;;;;;;45.63;17.73;;;3.90;99.90;;;;;;5052366;28;20044;-68
2022/12/02 01:15:57;;;;;;;44.95;16.58;;;3.90;99.90;;;;;;5046187;28;20407;-68
2022/12/02 01:18:23;;;;;;;44.08;17.30;;;3.90;99.90;;;;;;5024641;28;20123;-68
2022/12/02 01:20:49;;;;;;;44.28;17.33;;;3.90;99.90;;;;;;5052192;28;20060;-69
2022/12/02 01:23:15;;;;;;;43.28;16.05;;;3.90;99.90;;;;;;5035130;28;20069;-68
2022/12/02 01:25:41;;;;;;;41.05;17.05;;;3.90;99.90;;;;;;5029551;28;20048;-67
2022/12/02 01:28:06;;;;;;;45.85;16.88;;;3.80;99.90;;;;;;5051131;28;20068;-67
2022/12/02 01:30:32;;;;;;;39.38;15.70;;;3.80;99.90;;;;;;5052519;28;20041;-70
2022/12/02 01:32:58;;;;;;;41.72;15.40;;;3.80;99.90;;;;;;5030168;28;20037;-68
2022/12/02 01:35:23;;;;;;;42.63;15.65;;;3.80;99.90;;;;;;5022252;28;20502;-68
2022/12/02 01:37:49;;;;;;;43.95;16.42;;;3.80;99.90;;;;;;5034321;28;20091;-68
2022/12/02 01:40:17;;;;;;;41.10;16.35;;;3.80;99.90;;;;;;5026782;28;20110;-67
2022/12/02 01:42:42;;;;;;;40.30;16.02;;;3.80;99.90;;;;;;5028258;28;20487;-67
2022/12/02 01:45:09;;;;;;;38.55;14.70;;;3.80;99.90;;;;;;5052286;28;20055;-67
2022/12/02 01:47:36;;;;;;;41.05;16.27;;;3.80;99.90;;;;;;5052500;28;20072;-67
2022/12/02 01:50:03;;;;;;;37.90;15.48;;;3.80;99.90;;;;;;5013514;28;20046;-68
2022/12/02 01:52:29;;;;;;;40.55;15.00;;;3.80;99.90;;;;;;5033432;28;20052;-67
2022/12/02 01:54:54;;;;;;;40.55;14.75;;;3.80;99.90;;;;;;5034159;28;20045;-69
2022/12/02 01:57:25;;;;;;;39.58;15.55;;;3.80;99.90;;;;;;5034576;28;20041;-67
2022/12/02 01:59:50;;;;;;;42.78;15.77;;;3.80;99.90;;;;;;5045077;28;20033;-68
2022/12/02 02:02:29;;;;;;;35.78;14.93;;;3.80;99.90;;;;;;5030085;28;20561;-67
2022/12/02 02:04:59;;;;;;;41.47;15.43;;;3.80;99.90;;;;;;5052299;28;20128;-68
2022/12/02 02:07:25;;;;;;;35.42;14.27;;;3.70;99.90;;;;;;5023182;28;20041;-66
2022/12/02 02:09:51;;;;;;;35.97;15.48;;;3.70;99.90;;;;;;5030879;28;20116;-68
2022/12/02 02:12:17;;;;;;;36.03;15.10;;;3.70;99.90;;;;;;5033697;28;20044;-68
2022/12/02 02:14:43;;;;;;;39.75;15.10;;;3.70;99.90;;;;;;5030679;28;20060;-68
2022/12/02 02:17:09;;;;;;;33.78;13.63;;;3.60;99.90;;;;;;5043193;28;20586;-70
2022/12/02 02:19:35;;;;;;;38.75;14.73;;;3.70;99.90;;;;;;5033561;28;20041;-68
2022/12/02 02:22:06;;;;;;;36.03;14.63;;;3.60;99.90;;;;;;5033691;28;20045;-70
2022/12/02 02:24:31;;;;;;;37.45;15.40;;;3.60;99.90;;;;;;5035301;28;20419;-71
2022/12/02 02:26:57;;;;;;;38.00;14.82;;;3.60;99.90;;;;;;5048930;28;20041;-69
2022/12/02 02:29:23;;;;;;;43.58;14.90;;;3.60;99.90;;;;;;5051690;28;20095;-68
2022/12/02 02:31:48;;;;;;;41.03;15.38;;;3.60;99.90;;;;;;5003451;28;20085;-67
2022/12/02 02:34:14;;;;;;;36.17;14.40;;;3.60;99.90;;;;;;5046421;28;20033;-68
2022/12/02 02:36:39;;;;;;;39.58;15.68;;;3.60;99.90;;;;;;5051392;28;20033;-70
2022/12/02 02:39:05;;;;;;;35.60;14.25;;;3.50;99.90;;;;;;5040477;28;20123;-67
2022/12/02 02:41:31;;;;;;;35.22;14.57;;;3.50;99.90;;;;;;5027259;28;20102;-68
2022/12/02 02:43:57;;;;;;;36.92;14.43;;;3.50;99.90;;;;;;5029990;28;20415;-67
2022/12/02 02:46:22;;;;;;;36.75;14.35;;;3.50;99.90;;;;;;5050637;28;20116;-68
2022/12/02 02:48:50;;;;;;;41.13;14.43;;;3.50;99.90;;;;;;5046931;28;20122;-67
2022/12/02 02:51:16;;;;;;;41.17;15.27;;;3.50;99.90;;;;;;5043816;28;20135;-67
2022/12/02 02:53:43;;;;;;;40.92;15.48;;;3.50;99.90;;;;;;5032494;28;20067;-67
2022/12/02 02:56:09;;;;;;;35.30;14.55;;;3.50;99.90;;;;;;5026399;28;20048;-67
2022/12/02 02:58:35;;;;;;;36.67;15.07;;;3.50;99.90;;;;;;5027071;28;20037;-67
2022/12/02 03:01:10;;;;;;;38.17;15.25;;;3.50;99.90;;;;;;5031856;28;20178;-67
2022/12/02 03:03:41;;;;;;;40.50;16.00;;;3.50;99.90;;;;;;5032834;28;20124;-68
2022/12/02 03:06:09;;;;;;;40.33;15.30;;;3.50;99.90;;;;;;5022473;28;20071;-67
2022/12/02 03:08:39;;;;;;;39.08;15.32;;;3.50;99.90;;;;;;5026764;28;20102;-68
2022/12/02 03:11:05;;;;;;;37.33;14.55;;;3.50;99.90;;;;;;5032264;28;20104;-68
2022/12/02 03:13:34;;;;;;;39.45;14.43;;;3.50;99.90;;;;;;5020005;28;20602;-67
2022/12/02 03:16:01;;;;;;;37.47;14.90;;;3.50;99.90;;;;;;5029800;28;20064;-67
2022/12/02 03:18:27;;;;;;;39.75;15.40;;;3.40;99.90;;;;;;5050342;28;20110;-67
2022/12/02 03:20:52;;;;;;;36.13;13.70;;;3.40;99.90;;;;;;5032307;28;20069;-66
2022/12/02 03:23:18;;;;;;;37.55;15.43;;;3.50;99.90;;;;;;5026073;28;20040;-67
2022/12/02 03:25:44;;;;;;;38.95;15.18;;;3.50;99.90;;;;;;5021234;28;20122;-67
2022/12/02 03:28:10;;;;;;;38.15;14.57;;;3.40;99.90;;;;;;5023935;28;20463;-67
2022/12/02 03:30:37;;;;;;;42.28;16.60;;;3.40;99.90;;;;;;5026720;28;20120;-68
2022/12/02 03:33:03;;;;;;;38.22;15.07;;;3.40;99.90;;;;;;5029730;28;20037;-68
2022/12/02 03:35:28;;;;;;;37.78;15.43;;;3.40;99.90;;;;;;5032001;28;20127;-67
2022/12/02 03:37:54;;;;;;;41.92;16.80;;;3.40;99.90;;;;;;5050343;28;20043;-68
2022/12/02 03:40:20;;;;;;;42.10;16.60;;;3.40;99.90;;;;;;5052260;28;20083;-70
2022/12/02 03:42:46;;;;;;;42.83;16.35;;;3.40;99.90;;;;;;4998799;28;1064936;-68
2022/12/02 03:45:11;;;;;;;45.30;16.77;;;3.40;99.90;;;;;;5037242;28;20052;-68
2022/12/02 03:47:38;;;;;;;45.17;16.10;;;3.40;99.90;;;;;;5031015;28;20522;-68
2022/12/02 03:50:05;;;;;;;41.40;15.85;;;3.40;99.90;;;;;;5052613;28;20487;-67
2022/12/02 03:52:30;;;;;;;42.03;15.75;;;3.40;99.90;;;;;;5054255;28;20082;-68
2022/12/02 03:54:56;;;;;;;38.30;15.05;;;3.30;99.90;;;;;;5036693;28;20045;-67
2022/12/02 03:57:23;;;;;;;42.38;15.20;;;3.40;99.90;;;;;;5020131;28;20052;-67
2022/12/02 03:59:48;;;;;;;43.03;16.05;;;3.30;99.90;;;;;;5032662;28;20051;-68
2022/12/02 04:02:14;;;;;;;40.60;15.70;;;3.30;99.90;;;;;;5033549;28;20037;-67
2022/12/02 04:04:39;;;;;;;38.28;15.25;;;3.30;99.90;;;;;;5044966;28;20442;-68
2022/12/02 04:07:05;;;;;;;36.15;15.20;;;3.40;99.90;;;;;;5034589;28;20052;-67
2022/12/02 04:09:31;;;;;;;37.50;14.27;;;3.30;99.90;;;;;;5036164;28;20052;-68
2022/12/02 04:11:56;;;;;;;40.63;15.80;;;3.30;99.90;;;;;;5050250;28;20079;-67
2022/12/02 04:14:22;;;;;;;39.70;15.82;;;3.30;99.90;;;;;;5028433;28;20044;-67
2022/12/02 04:16:47;;;;;;;35.65;14.30;;;3.30;99.90;;;;;;5035995;28;20538;-68
2022/12/02 04:19:14;;;;;;;43.95;15.48;;;3.30;99.90;;;;;;5027350;28;20071;-68
2022/12/02 04:21:40;;;;;;;42.40;15.35;;;3.30;99.90;;;;;;5052703;28;20033;-67
2022/12/02 04:24:06;;;;;;;41.50;15.25;;;3.30;99.90;;;;;;5053747;28;20036;-68
2022/12/02 04:26:31;;;;;;;37.97;14.90;;;3.20;99.90;;;;;;5053806;28;20033;-67
2022/12/02 04:28:57;;;;;;;39.67;16.45;;;3.30;99.90;;;;;;5049455;28;20037;-66
2022/12/02 04:31:23;;;;;;;36.15;15.52;;;3.20;99.90;;;;;;5034108;28;20041;-67
2022/12/02 04:33:48;;;;;;;37.58;14.77;;;3.20;99.90;;;;;;5030409;28;20084;-70
2022/12/02 04:36:14;;;;;;;39.70;15.60;;;3.20;99.90;;;;;;5043569;28;20033;-70
2022/12/02 04:38:39;;;;;;;36.00;15.45;;;3.20;99.90;;;;;;5027524;28;20098;-67
2022/12/02 04:41:05;;;;;;;38.35;15.35;;;3.20;99.90;;;;;;5037965;28;20131;-69
2022/12/02 04:43:30;;;;;;;44.25;15.98;;;3.20;99.90;;;;;;5035835;28;20044;-68
2022/12/02 04:45:56;;;;;;;41.63;15.52;;;3.20;99.90;;;;;;5023494;28;20041;-67
2022/12/02 04:48:22;;;;;;;38.70;15.80;;;3.20;99.90;;;;;;5052409;28;20407;-67
2022/12/02 04:50:47;;;;;;;41.72;14.88;;;3.20;99.90;;;;;;5051544;28;20128;-66
2022/12/02 04:53:13;;;;;;;42.22;14.45;;;3.20;99.90;;;;;;5026194;28;20390;-67
2022/12/02 04:55:38;;;;;;;38.60;15.00;;;3.20;99.90;;;;;;5024059;28;20044;-67
2022/12/02 04:58:04;;;;;;;48.45;16.45;;;3.20;99.90;;;;;;5034707;28;20041;-67
2022/12/02 05:00:29;;;;;;;44.70;16.75;;;3.20;99.90;;;;;;5053480;28;20033;-67
2022/12/02 05:02:55;;;;;;;45.92;16.92;;;3.20;99.90;;;;;;5020400;28;20585;-67
2022/12/02 05:05:21;;;;;;;44.63;16.52;;;3.10;99.90;;;;;;5047592;28;20541;-69
2022/12/02 05:07:47;;;;;;;50.00;17.30;;;3.20;99.90;;;;;;5043155;28;20111;-68
2022/12/02 05:10:13;;;;;;;47.45;17.70;;;3.20;99.90;;;;;;5034431;28;20116;-68
2022/12/02 05:12:39;;;;;;;49.65;17.85;;;3.10;99.90;;;;;;5026494;28;20091;-67
2022/12/02 05:15:05;;;;;;;48.25;17.52;;;3.10;99.90;;;;;;5034713;28;20116;-68
2022/12/02 05:17:30;;;;;;;45.78;17.30;;;3.10;99.90;;;;;;5047505;28;20526;-68
2022/12/02 05:19:56;;;;;;;56.42;18.42;;;3.10;99.90;;;;;;5034222;28;20047;-68
2022/12/02 05:22:22;;;;;;;45.75;17.20;;;3.10;99.90;;;;;;5034310;28;20040;-67
2022/12/02 05:24:48;;;;;;;44.58;16.52;;;3.00;99.90;;;;;;5031809;28;20056;-67
2022/12/02 05:27:14;;;;;;;47.58;17.00;;;3.00;99.90;;;;;;5023537;28;20065;-67
2022/12/02 05:29:39;;;;;;;50.47;17.52;;;3.00;99.90;;;;;;5050040;28;20537;-67
2022/12/02 05:32:05;;;;;;;47.38;16.88;;;3.00;99.90;;;;;;5052397;28;20029;-67
2022/12/02 05:34:31;;;;;;;54.78;17.80;;;3.00;99.90;;;;;;5047654;28;20049;-67
2022/12/02 05:36:56;;;;;;;57.45;18.80;;;3.00;99.90;;;;;;5019423;28;20044;-68
2022/12/02 05:39:22;;;;;;;51.40;17.17;;;2.90;99.90;;;;;;5025476;28;20048;-67
2022/12/02 05:49:27;;;;;;;56.83;17.77;;;2.90;99.90;;;;;;5031028;28;20663;-67
2022/12/02 05:52:00;;;;;;;49.55;16.75;;;2.90;99.90;;;;;;5005435;28;20084;-67
2022/12/02 05:57:05;;;;;;;49.42;17.10;;;2.90;99.90;;;;;;5498511;22;20053;-68
2022/12/02 05:59:31;;;;;;;49.22;16.85;;;2.90;99.90;;;;;;5039092;28;20498;-68
2022/12/02 06:01:58;;;;;;;55.65;18.20;;;3.00;99.90;;;;;;5019557;28;20038;-68
2022/12/02 06:04:29;;;;;;;60.45;17.20;;;3.00;99.90;;;;;;5003441;28;20060;-68
2022/12/02 06:06:58;;;;;;;50.83;17.35;;;3.00;99.90;;;;;;5013855;28;20522;-68
2022/12/02 06:17:14;;;;;;;51.92;16.90;;;3.00;99.90;;;;;;5095009;22;20317;-68
2022/12/02 06:19:45;;;;;;;48.60;18.10;;;3.10;99.90;;;;;;5051312;28;20163;-68
2022/12/02 06:22:32;;;;;;;56.90;17.02;;;3.00;99.90;;;;;;5051462;28;20037;-68
2022/12/02 06:25:05;;;;;;;60.47;18.40;;;3.00;99.90;;;;;;5031152;28;20246;-68
2022/12/02 06:37:55;;;;;;;55.08;17.50;;;3.00;99.90;;;;;;5125850;22;20508;-68
2022/12/02 06:46:37;;;;;;;49.35;17.45;;;3.00;99.90;;;;;;5746071;22;20063;-66
2022/12/02 07:00:34;;;;;;;59.60;19.15;;;2.90;99.90;;;;;;6141726;22;20027;-67
2022/12/02 07:03:00;;;;;;;61.55;17.75;;;3.00;99.90;;;;;;5082555;22;20135;-66
2022/12/02 07:08:03;;;;;;;58.38;18.90;;;2.90;99.90;;;;;;6105191;22;20242;-68
2022/12/02 07:11:48;;;;;;;56.40;18.95;;;2.90;99.90;;;;;;5075344;28;20048;-69
2022/12/02 07:14:17;;;;;;;55.75;19.02;;;2.90;99.90;;;;;;5015341;28;20135;-67
2022/12/02 07:17:35;;;;;;;52.90;17.73;;;3.00;99.90;;;;;;5041090;28;20044;-66
2022/12/02 07:20:31;;;;;;;55.85;19.33;;;2.90;99.90;;;;;;5041231;28;20033;-65
2022/12/02 07:23:26;;;;;;;61.90;19.73;;;2.90;99.90;;;;;;5032986;22;20050;-71
2022/12/02 07:25:54;;;;;;;57.97;19.48;;;2.90;99.90;;;;;;5005048;28;20514;-71
2022/12/02 07:28:30;;;;;;;54.13;19.00;;;2.90;99.90;;;;;;5030682;28;20037;-72
2022/12/02 07:31:12;;;;;;;59.55;19.30;;;2.90;99.90;;;;;;5024914;28;20483;-73
2022/12/02 07:33:38;;;;;;;59.17;20.45;;;2.90;99.90;;;;;;5020636;28;20057;-71
2022/12/02 07:36:04;;;;;;;61.90;20.05;;;2.90;99.90;;;;;;5022429;28;20207;-70
2022/12/02 07:38:30;;;;;;;59.15;19.95;;;2.90;99.90;;;;;;5030776;28;20124;-71
2022/12/02 07:40:55;;;;;;;54.72;19.15;;;2.90;99.90;;;;;;5010417;28;20041;-70
2022/12/02 07:43:21;;;;;;;53.47;20.00;;;2.90;99.90;;;;;;5015678;28;20053;-70
2022/12/02 07:45:46;;;;;;;57.95;21.10;;;2.90;99.90;;;;;;5016011;28;20061;-72
2022/12/02 07:48:12;;;;;;;56.88;20.63;;;2.90;99.90;;;;;;5008298;28;20281;-71
2022/12/02 07:50:38;;;;;;;64.45;20.67;;;2.90;99.90;;;;;;5018500;28;20496;-71
2022/12/02 07:53:03;;;;;;;62.25;20.70;;;2.90;99.90;;;;;;5021576;28;20504;-71
2022/12/02 07:55:29;;;;;;;60.55;20.27;;;2.90;99.90;;;;;;5008334;28;20053;-69
2022/12/02 07:57:55;;;;;;;59.22;21.48;;;3.00;99.90;;;;;;5009794;28;20643;-71
2022/12/02 08:00:21;;;;;;;58.50;19.40;;;3.00;99.90;;;;;;5029943;28;20415;-74
2022/12/02 08:02:47;;;;;;;56.90;21.02;;;3.00;99.90;;;;;;5029941;28;20077;-72
2022/12/02 08:05:12;;;;;;;60.75;19.70;;;2.90;99.90;;;;;;5030031;28;20450;-71
2022/12/02 08:07:38;;;;;;;57.58;20.48;;;2.90;99.90;;;;;;5008584;28;20405;-71
2022/12/02 08:10:05;;;;;;;56.17;19.77;;;2.90;99.90;;;;;;5025001;28;20340;-69
2022/12/02 08:12:31;;;;;;;57.70;20.67;;;2.90;99.90;;;;;;5023464;28;20120;-73
2022/12/02 08:14:57;;;;;;;63.15;21.25;;;2.90;99.90;;;;;;5010487;28;20136;-68
2022/12/02 08:17:22;;;;;;;64.25;20.98;;;2.90;99.90;;;;;;5026513;28;20168;-68
2022/12/02 08:19:48;;;;;;;56.10;20.75;;;3.00;99.90;;;;;;4995880;28;20152;-71
2022/12/02 08:22:14;;;;;;;62.53;19.85;;;3.00;99.90;;;;;;5012817;28;20045;-71
2022/12/02 08:24:40;;;;;;;60.42;20.98;;;2.90;99.90;;;;;;5031570;28;20041;-67
2022/12/02 08:27:05;;;;;;;63.78;21.33;;;2.90;99.90;;;;;;4994783;28;20052;-66
2022/12/02 08:29:31;;;;;;;60.92;21.20;;;2.90;99.90;;;;;;5001642;28;20046;-68
2022/12/02 08:31:57;;;;;;;61.42;21.85;;;2.90;99.90;;;;;;5011304;28;20164;-66
2022/12/02 08:34:22;;;;;;;63.10;20.98;;;2.90;99.90;;;;;;5004897;28;20397;-67
2022/12/02 08:36:48;;;;;;;72.40;22.45;;;2.90;99.90;;;;;;5019392;28;20044;-66
2022/12/02 08:39:14;;;;;;;68.75;20.90;;;2.90;99.90;;;;;;5014960;28;20041;-66
2022/12/02 08:41:39;;;;;;;67.75;22.42;;;3.00;99.90;;;;;;5021703;28;20495;-67
2022/12/02 08:44:05;;;;;;;62.30;21.13;;;3.00;99.90;;;;;;5011041;28;20468;-67
2022/12/02 08:46:32;;;;;;;64.05;21.40;;;3.00;99.90;;;;;;5006622;28;20046;-66
2022/12/02 08:48:59;;;;;;;60.63;21.27;;;3.00;99.90;;;;;;4989233;28;20038;-66
2022/12/02 08:51:24;;;;;;;71.15;22.13;;;3.00;99.90;;;;;;5005251;28;20404;-66
2022/12/02 08:53:50;;;;;;;64.68;21.00;;;3.00;99.90;;;;;;5002826;28;20499;-67
2022/12/02 08:56:16;;;;;;;63.97;22.85;;;3.00;99.90;;;;;;5004743;28;20041;-66
2022/12/02 08:58:42;;;;;;;73.47;22.60;;;3.00;99.90;;;;;;5010252;28;20034;-69
2022/12/02 09:01:07;;;;;;;68.13;21.52;;;3.00;99.90;;;;;;5007279;28;20037;-68
2022/12/02 09:03:33;;;;;;;67.38;22.23;;;3.10;99.90;;;;;;5001595;28;20073;-68
2022/12/02 09:05:59;;;;;;;62.72;21.63;;;3.00;99.90;;;;;;5013045;28;20460;-68
2022/12/02 09:08:25;;;;;;;71.20;21.02;;;3.10;99.90;;;;;;4999559;28;20563;-67
2022/12/02 09:10:51;;;;;;;63.47;20.90;;;3.10;99.90;;;;;;4989383;28;20049;-63
2022/12/02 09:13:17;;;;;;;65.65;21.25;;;3.10;99.90;;;;;;5027729;28;20033;-67
2022/12/02 09:15:42;;;;;;;72.03;21.70;;;3.10;99.90;;;;;;5018969;28;20044;-68
2022/12/02 09:18:08;;;;;;;69.13;21.30;;;3.10;99.90;;;;;;5004384;28;20084;-68
2022/12/02 09:20:34;;;;;;;60.58;20.63;;;3.10;99.90;;;;;;5017739;28;20069;-68
2022/12/02 09:23:00;;;;;;;66.72;21.00;;;3.20;99.90;;;;;;5023725;28;20037;-68
2022/12/02 09:25:26;;;;;;;61.28;19.88;;;3.20;99.90;;;;;;5012856;28;20088;-68
2022/12/02 09:27:52;;;;;;;63.40;20.70;;;3.30;99.90;;;;;;5025606;28;20034;-74
2022/12/02 09:30:18;;;;;;;68.45;21.15;;;3.30;99.90;;;;;;5006307;28;20034;-74
2022/12/02 09:32:43;;;;;;;58.88;19.25;;;3.30;99.90;;;;;;5000033;28;20049;-73
2022/12/02 09:35:09;;;;;;;61.33;19.65;;;3.30;99.90;;;;;;5005730;28;20030;-72
2022/12/02 09:37:35;;;;;;;70.70;20.75;;;3.30;99.90;;;;;;5004998;28;20476;-71
2022/12/02 09:40:00;;;;;;;62.10;21.23;;;3.30;99.90;;;;;;5008873;28;20070;-72
2022/12/02 09:42:27;;;;;;;57.65;19.73;;;3.30;99.90;;;;;;5011233;28;20038;-73
2022/12/02 09:44:53;;;;;;;59.95;19.73;;;3.20;99.90;;;;;;5004358;28;20536;-72
2022/12/02 09:47:19;;;;;;;63.75;19.63;;;3.20;99.90;;;;;;5001315;28;20117;-72
2022/12/02 09:49:46;;;;;;;59.63;20.27;;;3.20;99.90;;;;;;5006889;28;20064;-73
2022/12/02 09:52:16;;;;;;;50.75;17.42;;;3.20;99.90;;;;;;5026597;28;20029;-76
2022/12/02 09:54:42;;;;;;;60.50;18.92;;;3.20;99.90;;;;;;5006752;28;20038;-69
2022/12/02 09:57:18;;;;;;;50.30;18.40;;;3.20;99.90;;;;;;5030739;28;20442;-72
2022/12/02 09:59:44;;;;;;;54.25;17.65;;;3.10;99.90;;;;;;5030847;28;20076;-73
2022/12/02 10:02:35;;;;;;;50.95;17.85;;;3.00;99.90;;;;;;5002553;28;20095;-73
2022/12/02 10:05:06;;;;;;;51.33;17.65;;;3.00;99.90;;;;;;5027733;28;20048;-72
2022/12/02 10:07:32;;;;;;;41.90;14.80;;;3.00;99.90;;;;;;5030803;28;20164;-71
2022/12/02 10:09:58;;;;;;;49.08;15.30;;;2.90;99.90;;;;;;5006288;28;20077;-73
2022/12/02 10:12:24;;;;;;;46.30;14.85;;;2.90;99.90;;;;;;5012669;28;20060;-75
2022/12/02 10:14:50;;;;;;;54.17;17.27;;;2.90;99.90;;;;;;5015960;28;20037;-72
2022/12/02 10:17:19;;;;;;;46.70;14.85;;;2.90;99.90;;;;;;5012240;28;20088;-71
2022/12/02 10:19:45;;;;;;;48.20;15.95;;;2.90;99.90;;;;;;5004042;28;20105;-72
2022/12/02 10:22:15;;;;;;;44.97;16.40;;;2.90;99.90;;;;;;5028256;28;20533;-72
2022/12/02 10:24:41;;;;;;;49.80;17.25;;;3.00;99.90;;;;;;5016583;28;20129;-72
2022/12/02 10:27:07;;;;;;;58.15;17.25;;;3.00;99.90;;;;;;5001558;28;20077;-72
2022/12/02 10:29:34;;;;;;;40.53;16.05;;;3.10;99.90;;;;;;5019370;28;20076;-72
2022/12/02 10:32:05;;;;;;;43.13;15.35;;;3.10;99.90;;;;;;5006023;28;20096;-71
2022/12/02 10:34:33;;;;;;;45.65;16.67;;;3.10;99.90;;;;;;5018447;28;20111;-71
2022/12/02 10:37:19;;;;;;;41.22;15.75;;;3.10;99.90;;;;;;5008393;28;20044;-71
2022/12/02 10:39:45;;;;;;;38.22;15.43;;;3.10;99.90;;;;;;5008788;28;20050;-71
2022/12/02 10:42:20;;;;;;;44.30;15.40;;;3.10;99.90;;;;;;5001108;28;20042;-71
2022/12/02 10:44:46;;;;;;;44.92;14.85;;;3.10;99.90;;;;;;5006280;28;20508;-72
2022/12/02 10:47:23;;;;;;;51.03;16.92;;;3.00;99.90;;;;;;5003613;28;20515;-71
2022/12/02 10:49:59;;;;;;;48.88;16.25;;;3.00;99.90;;;;;;5004593;28;20088;-70
2022/12/02 10:53:00;;;;;;;43.95;15.35;;;3.10;99.90;;;;;;5016685;28;20041;-71
2022/12/02 10:55:27;;;;;;;46.40;15.00;;;3.00;99.90;;;;;;4992251;28;20046;-69
2022/12/02 10:57:54;;;;;;;37.78;14.80;;;2.90;99.90;;;;;;4989810;28;20124;-69
2022/12/02 11:00:24;;;;;;;44.92;16.35;;;2.90;99.90;;;;;;5004688;28;20487;-70
2022/12/02 11:02:54;;;;;;;43.25;16.00;;;2.90;99.90;;;;;;5021260;28;20078;-69
2022/12/02 11:05:26;;;;;;;49.17;16.35;;;2.90;99.90;;;;;;5016722;28;20483;-70
2022/12/02 11:08:25;;;;;;;47.65;17.05;;;2.90;99.90;;;;;;5006117;28;20125;-70
2022/12/02 11:11:14;;;;;;;51.17;17.95;;;2.90;99.90;;;;;;5023656;28;20106;-70
2022/12/02 11:13:50;;;;;;;45.92;16.95;;;2.90;99.90;;;;;;5031634;28;20044;-70
2022/12/02 11:16:28;;;;;;;51.42;17.85;;;3.00;99.90;;;;;;4998462;28;20463;-70
2022/12/02 11:19:05;;;;;;;52.55;18.52;;;2.90;99.90;;;;;;5020090;28;20364;-70
2022/12/02 11:21:42;;;;;;;52.33;18.10;;;3.00;99.90;;;;;;5029609;28;20132;-69
2022/12/02 11:24:23;;;;;;;49.92;18.27;;;2.90;99.90;;;;;;5031248;28;20045;-70
2022/12/02 11:29:27;;;;;;;47.53;18.83;;;2.90;99.90;;;;;;5007731;28;20045;-69
2022/12/02 11:32:21;;;;;;;49.45;18.42;;;2.90;99.90;;;;;;5030836;28;20088;-69
2022/12/02 11:34:48;;;;;;;59.13;20.42;;;2.90;99.90;;;;;;5011992;28;20100;-69
2022/12/02 11:37:26;;;;;;;58.75;19.30;;;3.00;99.90;;;;;;5030186;28;20041;-71
2022/12/02 11:40:09;;;;;;;53.13;20.60;;;3.00;99.90;;;;;;5027992;28;20057;-69
2022/12/02 11:42:35;;;;;;;57.40;19.83;;;3.00;99.90;;;;;;5003529;28;20430;-68
2022/12/02 11:45:33;;;;;;;64.97;21.33;;;3.00;99.90;;;;;;5028057;28;20037;-70
2022/12/02 11:48:00;;;;;;;54.70;20.85;;;3.00;99.90;;;;;;5016741;28;20089;-70
2022/12/02 11:50:27;;;;;;;67.30;22.38;;;3.00;99.90;;;;;;5002986;28;20066;-70
2022/12/02 11:53:00;;;;;;;65.97;22.77;;;3.00;99.90;;;;;;5007026;28;20501;-69
2022/12/02 11:55:39;;;;;;;67.90;22.95;;;3.00;99.90;;;;;;5007271;28;20038;-71
2022/12/02 11:58:18;;;;;;;64.22;23.73;;;2.90;99.90;;;;;;5002598;28;20045;-70
2022/12/02 12:01:33;;;;;;;62.60;22.85;;;3.00;99.90;;;;;;5009028;28;20504;-66
2022/12/02 12:03:58;;;;;;;62.58;20.38;;;3.00;99.90;;;;;;5013974;28;20080;-69
2022/12/02 12:06:27;;;;;;;62.70;23.58;;;3.00;99.90;;;;;;5004414;28;20077;-70
2022/12/02 12:08:55;;;;;;;67.50;22.88;;;3.10;99.90;;;;;;5021656;28;20488;-70
2022/12/02 12:11:29;;;;;;;54.72;20.63;;;3.00;99.90;;;;;;5033931;28;20103;-69
2022/12/02 12:14:10;;;;;;;57.83;21.92;;;3.10;99.90;;;;;;5022838;28;20026;-69
2022/12/02 12:16:48;;;;;;;64.88;23.35;;;3.00;99.90;;;;;;5018385;28;20041;-70
2022/12/02 12:19:17;;;;;;;63.22;23.35;;;3.10;99.90;;;;;;5014428;28;20042;-69
2022/12/02 12:21:46;;;;;;;66.53;23.88;;;3.00;99.90;;;;;;5005514;28;20420;-69
2022/12/02 12:24:18;;;;;;;68.90;23.67;;;3.10;99.90;;;;;;5012678;28;20038;-69
2022/12/02 12:26:45;;;;;;;73.85;24.02;;;3.10;99.90;;;;;;5024015;28;20148;-69
2022/12/02 12:29:11;;;;;;;65.97;24.83;;;3.10;99.90;;;;;;5023423;28;20049;-70
2022/12/02 12:31:36;;;;;;;69.07;25.83;;;3.10;99.90;;;;;;4993993;28;20035;-69
2022/12/02 12:34:02;;;;;;;72.03;24.25;;;3.10;99.90;;;;;;5019533;28;20037;-70
2022/12/02 12:36:29;;;;;;;72.18;25.77;;;3.10;99.90;;;;;;5033697;28;20484;-68
2022/12/02 12:38:55;;;;;;;73.85;24.63;;;3.10;99.90;;;;;;5006361;28;20049;-70
2022/12/02 12:41:21;;;;;;;69.05;25.00;;;3.10;99.90;;;;;;5016662;28;20041;-69
2022/12/02 12:43:46;;;;;;;66.72;25.17;;;3.10;99.90;;;;;;5022072;28;20045;-68
2022/12/02 12:46:12;;;;;;;66.25;24.05;;;3.20;99.90;;;;;;5009343;28;20063;-70
2022/12/02 12:48:38;;;;;;;75.35;24.92;;;3.20;99.90;;;;;;5009389;28;20365;-69
2022/12/02 12:51:04;;;;;;;72.35;25.02;;;3.20;99.90;;;;;;5025272;28;20119;-67
2022/12/02 12:53:29;;;;;;;63.22;22.65;;;3.20;99.90;;;;;;4996813;28;20038;-70
2022/12/02 12:55:55;;;;;;;72.70;26.10;;;3.20;99.90;;;;;;5007909;28;20069;-69
2022/12/02 12:58:21;;;;;;;70.65;25.42;;;3.20;99.90;;;;;;5017018;28;20045;-69
2022/12/02 13:00:47;;;;;;;63.28;25.10;;;3.20;99.90;;;;;;5031824;28;20108;-70
2022/12/02 13:03:13;;;;;;;65.28;23.90;;;3.10;99.90;;;;;;5032729;28;20569;-67
2022/12/02 13:05:39;;;;;;;69.53;24.77;;;3.20;99.90;;;;;;5008827;28;20697;-68
2022/12/02 13:08:04;;;;;;;73.35;25.75;;;3.20;99.90;;;;;;5021220;28;20041;-68
2022/12/02 13:10:30;;;;;;;69.78;24.50;;;3.10;99.90;;;;;;5032136;28;20048;-69
2022/12/02 13:12:55;;;;;;;73.35;25.75;;;3.10;99.90;;;;;;5021892;28;20037;-69
2022/12/02 13:15:21;;;;;;;75.50;26.45;;;3.10;99.90;;;;;;5015800;28;20113;-68
2022/12/02 13:17:47;;;;;;;72.40;25.45;;;3.10;99.90;;;;;;5015868;28;20524;-68
2022/12/02 13:20:13;;;;;;;65.95;25.27;;;3.10;99.90;;;;;;5007528;28;20037;-66
2022/12/02 13:22:39;;;;;;;72.45;26.98;;;3.10;99.90;;;;;;5083718;22;20085;-67
2022/12/02 13:25:05;;;;;;;68.15;23.45;;;3.10;99.90;;;;;;5090960;28;20116;-66
2022/12/02 13:27:31;;;;;;;71.55;25.33;;;3.10;99.90;;;;;;5052182;28;20047;-66
2022/12/02 13:29:57;;;;;;;62.83;24.83;;;3.10;99.90;;;;;;5044072;28;20040;-67
2022/12/02 13:32:23;;;;;;;72.40;25.92;;;3.10;99.90;;;;;;5047363;28;20044;-67
2022/12/02 13:34:48;;;;;;;66.45;25.55;;;3.10;99.90;;;;;;5044221;28;20044;-67
2022/12/02 13:37:14;;;;;;;67.05;25.58;;;3.20;99.90;;;;;;5042044;28;20045;-67